Ardmore, Maryland
Current Conditions -  °F | °C
As of 10:50 AM on Friday 19 Dec 2014 (Local Time) from KCGS Reporting Station
Overcast Overcast  
Wind Chill: 31°   Ceiling: 3300
Heat Index: 37°   Visibility: 10mi
Dew Point: 27°   Wind: 8mph
Humidity: 65%   Direction: 280°W
Pressure: 30.17"   Gusts: 16mph
Location:  38.9183°N, 76.8721°W
Report Text: KCGS 191550Z AUTO 28007G14KT 10SM OVC033 03/M03 A3017 RMK AO1
Loading
Personal Weather Stations






























Interactive Weather Map New forecast layout! Learn more

10-Day Weather Forecast

Advertisements
Track Severe Weather on mobile